Latest Weather Observations for Cape Otway

IDV60801

Issued at 5:22 am EST Wednesday 22 September 2021 (issued every 10 minutes, with the page automatically refreshed every 10 minutes)

About weather observations | Map of weather stations | Latest weather observations for VIC | Other Formats
Station Details ID: 090015 Name: CAPE OTWAY LIGHTHOUSE Lat: -38.86 Lon: 143.51 Height: 80.0 m
Data from the previous 72 hours. | See also: Recent months at Cape Otway
Date/Time
EST
Temp
°C
App
Temp
°C
Dew
Point
°C
Rel
Hum
%
Delta-T
°C
Wind Press
QNH
hPa
Press
MSL
hPa
Rain since
9am
mm
Dir  Spd
km/h
Gust
km/h
Spd
kts
Gust
kts
22/05:00am 11.0 5.7 9.8 92 0.6 W 28 41 15 22 1024.5 1024.5 0.6
22/04:30am 11.0 5.3 9.9 93 0.6 W 30 43 16 23 1024.4 1024.4 0.6
22/04:00am 10.8 5.1 9.7 93 0.6 W 30 41 16 22 1024.2 1024.2 0.6
22/03:30am 11.2 5.9 9.8 91 0.7 WSW 28 41 15 22 1024.2 1024.2 0.4
22/03:00am 11.1 5.3 9.4 89 0.9 W 30 41 16 22 1024.5 1024.5 0.4
22/02:30am 11.3 5.5 9.6 89 0.9 W 30 39 16 21 1024.7 1024.7 0.4
22/02:00am 11.1 5.7 9.5 90 0.8 WSW 28 44 15 24 1025.1 1025.1 0.4
22/01:30am 11.2 5.8 9.6 90 0.8 W 28 41 15 22 1025.3 1025.3 0.2
22/01:00am 11.3 5.5 9.6 89 0.9 W 30 43 16 23 1025.6 1025.7 0.2
22/12:30am 11.5 5.3 9.4 87 1.1 W 32 41 17 22 1025.6 1025.7 0.2
22/12:00am 11.6 6.3 9.9 89 0.9 WSW 28 37 15 20 1025.6 1025.7 0.2
 
Date/Time
EST
Temp
°C
App
Temp
°C
Dew
Point
°C
Rel
Hum
%
Delta-T
°C
Wind Press
QNH
hPa
Press
MSL
hPa
Rain since
9am
mm
Dir  Spd
km/h
Gust
km/h
Spd
kts
Gust
kts
21/11:30pm 11.3 5.6 9.7 90 0.8 W 30 46 16 25 1025.7 1025.8 0.2
21/11:00pm 11.2 5.3 9.1 87 1.0 W 30 41 16 22 1026.0 1026.1 0.2
21/10:30pm 11.4 5.6 9.5 88 1.0 WSW 30 43 16 23 1025.9 1026.0 0.2
21/10:00pm 11.5 5.7 9.6 88 1.0 WSW 30 48 16 26 1026.0 1026.1 0.2
21/09:40pm 11.3 4.7 9.9 91 0.7 WSW 35 54 19 29 1025.9 1026.0 0.2
21/09:30pm 11.5 5.3 10.1 91 0.7 WSW 33 50 18 27 1025.8 1025.9 0.2
21/09:25pm 11.3 5.2 9.9 91 0.7 WSW 32 50 17 27 1025.8 1025.9 0.2
21/09:00pm 11.7 5.7 10.1 90 0.8 W 32 44 17 24 1025.9 1026.0 0.2
21/08:30pm 11.7 5.1 10.1 90 0.8 W 35 48 19 26 1025.9 1026.0 0.2
21/08:00pm 11.7 4.3 9.8 88 1.0 W 39 56 21 30 1025.7 1025.8 0.2
21/07:54pm 11.9 5.3 10.0 88 1.0 W 35 54 19 29 1025.6 1025.7 0.2
21/07:30pm 11.8 5.2 9.9 88 1.0 W 35 50 19 27 1025.5 1025.6 0.2
21/07:09pm 11.6 4.6 9.9 89 0.9 W 37 56 20 30 1025.4 1025.4 0.2
21/07:00pm 11.7 4.7 9.9 89 0.9 W 37 50 20 27 1025.4 1025.4 0.2
21/06:30pm 11.7 4.2 9.4 86 1.2 W 39 50 21 27 1025.2 1025.2 0.2
21/06:00pm 11.3 4.1 9.2 87 1.0 W 37 52 20 28 1025.1 1025.1 0.2
21/05:45pm 11.7 3.9 9.6 87 1.1 W 41 61 22 33 1025.2 1025.2 0.2
21/05:30pm 11.5 4.8 9.6 88 1.0 W 35 50 19 27 1025.1 1025.1 0.2
21/05:00pm 11.1 4.7 9.2 88 0.9 W 33 46 18 25 1025.0 1025.0 0.2
21/04:30pm 11.0 5.4 8.9 87 1.0 WNW 28 37 15 20 1025.0 1025.0 0.2
21/04:00pm 11.1 5.8 8.5 84 1.3 WNW 26 39 14 21 1025.1 1025.1 0.2
21/03:30pm 10.9 4.6 7.6 80 1.6 W 30 44 16 24 1025.3 1025.3 0.2
21/03:00pm 11.4 4.3 6.5 72 2.3 W 33 43 18 23 1025.5 1025.6 0.2
21/02:30pm 11.8 4.9 6.5 70 2.5 W 32 43 17 23 1025.7 1025.8 0.2
21/02:00pm 11.4 4.7 5.5 67 2.7 W 30 43 16 23 1025.9 1026.0 0.2
21/01:30pm 11.3 4.5 5.2 66 2.8 W 30 43 16 23 1026.2 1026.3 0.2
21/01:00pm 11.3 4.3 4.3 62 3.1 WSW 30 41 16 22 1026.3 1026.4 0.2
21/12:30pm 11.3 4.4 4.5 63 3.1 WSW 30 44 16 24 1026.2 1026.3 0.2
21/12:00pm 11.8 4.2 4.1 59 3.4 WSW 33 46 18 25 1026.2 1026.3 0.2
21/11:30am 10.9 3.2 3.5 60 3.3 WSW 33 43 18 23 1026.0 1026.1 0.0
21/11:00am 11.0 3.8 3.1 58 3.4 SW 30 41 16 22 1026.0 1026.1 0.0
21/10:30am 11.0 2.8 2.8 57 3.6 SW 35 44 19 24 1025.9 1026.0 0.0
21/10:00am 10.4 1.9 3.0 60 3.2 SW 37 48 20 26 1025.7 1025.8 0.0
21/09:30am 9.3 1.7 4.1 70 2.3 SSW 33 48 18 26 1025.6 1025.7 0.0
21/09:00am 9.3 0.7 4.5 72 2.1 SW 39 54 21 29 1025.5 1025.6 5.2
21/08:30am 8.7 -1.0 3.7 71 2.2 SW 44 67 24 36 1025.2 1025.2 5.2
21/08:00am 9.6 0.4 1.5 57 3.4 SSW 39 57 21 31 1024.6 1024.6 5.2
21/07:30am 8.6 1.1 3.6 71 2.2 SSW 32 56 17 30 1023.8 1023.8 5.2
21/07:00am 8.8 0.5 2.4 64 2.7 SSW 35 56 19 30 1023.6 1023.6 4.6
21/06:36am 9.3 -0.1 2.6 63 2.9 SSW 41 59 22 32 1022.9 1022.9 4.6
21/06:30am 9.1 -0.6 2.9 65 2.7 SW 43 59 23 32 1022.9 1022.9 4.6
21/06:04am 9.4 -0.3 3.8 68 2.5 SSW 44 63 24 34 1022.4 1022.4 4.6
21/06:00am 9.7 0.0 2.8 62 2.9 SSW 43 54 23 29 1022.3 1022.3 4.6
21/05:38am 9.4 0.9 3.4 66 2.6 SSW 37 56 20 30 1022.2 1022.2 4.6
21/05:30am 8.7 -1.0 2.7 66 2.5 SSW 43 56 23 30 1022.3 1022.3 4.6
21/05:14am 8.5 -3.5 4.5 76 1.8 SW 57 76 31 41 1022.0 1022.0 4.6
21/05:08am 8.9 -1.9 3.9 71 2.2 SW 50 76 27 41 1021.7 1021.7 4.6
21/05:04am 9.4 -0.3 2.9 64 2.8 SSW 43 69 23 37 1021.7 1021.7 4.6
21/05:00am 9.3 -0.1 2.6 63 2.8 SSW 41 57 22 31 1021.7 1021.7 4.6
21/04:56am 9.4 0.5 2.9 64 2.8 SSW 39 57 21 31 1021.6 1021.6 4.6
21/04:30am 8.6 1.2 3.8 72 2.1 SSW 32 48 17 26 1021.3 1021.3 4.6
21/04:00am 9.5 0.8 1.9 59 3.2 SSW 37 59 20 32 1020.5 1020.5 4.6
21/03:35am 9.0 -0.6 3.4 68 2.4 SW 43 61 23 33 1020.4 1020.4 4.6
21/03:30am 8.8 -1.3 3.6 70 2.3 SW 46 63 25 34 1020.3 1020.3 4.6
21/03:01am 8.8 1.5 4.4 74 1.9 SSW 32 54 17 29 1020.1 1020.1 4.6
21/03:00am 9.0 2.2 5.0 76 1.8 SSW 30 48 16 26 1019.9 1020.0 4.6
21/02:30am 8.8 -2.1 3.8 71 2.2 SSW 50 70 27 38 1019.7 1019.8 4.4
21/02:13am 9.1 0.0 3.9 70 2.3 SSW 41 59 22 32 1019.3 1019.4 4.4
21/02:00am 9.4 -0.8 3.4 66 2.6 SW 46 63 25 34 1019.5 1019.6 4.4
21/01:30am 9.5 -0.2 2.8 63 2.9 SSW 43 61 23 33 1019.2 1019.3 4.4
21/01:26am 9.7 0.1 3.2 64 2.8 SSW 43 61 23 33 1019.1 1019.2 4.4
21/01:00am 9.5 -0.4 3.0 64 2.8 SSW 44 61 24 33 1019.0 1019.1 4.4
21/12:30am 8.9 1.4 3.5 69 2.3 SSW 32 52 17 28 1018.7 1018.8 4.4
21/12:04am 9.3 0.9 3.9 69 2.4 SW 37 57 20 31 1018.3 1018.4 4.4
21/12:00am 9.2 0.8 3.8 69 2.4 SSW 37 48 20 26 1018.4 1018.5 4.4
 
Date/Time
EST
Temp
°C
App
Temp
°C
Dew
Point
°C
Rel
Hum
%
Delta-T
°C
Wind Press
QNH
hPa
Press
MSL
hPa
Rain since
9am
mm
Dir  Spd
km/h
Gust
km/h
Spd
kts
Gust
kts
20/11:30pm 8.4 -0.7 4.0 74 1.9 SSW 41 63 22 34 1017.8 1017.9 4.4
20/11:00pm 9.6 -0.1 3.1 64 2.8 SSW 43 61 23 33 1017.7 1017.8 4.0
20/10:33pm 9.0 -0.8 3.4 68 2.4 SSW 44 63 24 34 1017.4 1017.5 4.0
20/10:30pm 9.6 -0.5 4.0 68 2.5 SSW 46 63 25 34 1017.4 1017.5 4.0
20/10:00pm 8.2 -2.3 3.5 72 2.0 SSW 48 70 26 38 1017.2 1017.3 4.0
20/09:36pm 8.7 -0.3 2.7 66 2.5 SSW 39 57 21 31 1016.6 1016.7 4.0
20/09:30pm 8.6 0.6 4.0 73 2.0 WSW 35 52 19 28 1016.6 1016.7 4.0
20/09:18pm 8.2 -1.6 3.5 72 2.0 WSW 44 63 24 34 1016.6 1016.7 4.0
20/09:09pm 8.9 -1.2 3.9 71 2.2 SW 46 67 25 36 1016.3 1016.4 4.0
20/09:00pm 8.8 -1.2 2.4 64 2.7 SSW 44 65 24 35 1016.2 1016.3 4.0
20/08:30pm 9.3 -0.7 4.3 71 2.2 SW 46 69 25 37 1015.6 1015.7 4.0
20/08:00pm 9.0 -1.5 1.7 60 3.0 SSW 46 67 25 36 1015.2 1015.3 4.0
20/07:30pm 8.1 -2.8 3.6 73 1.9 SW 50 78 27 42 1014.7 1014.7 3.8
20/07:10pm 8.4 -1.4 3.3 70 2.2 SW 44 82 24 44 1013.8 1013.8 3.4
20/07:09pm 8.8 -0.8 3.6 70 2.3 SW 43 61 23 33 1014.0 1014.0 3.4
20/07:00pm 9.4 -0.5 2.9 64 2.8 SW 44 61 24 33 1013.9 1013.9 2.8
20/06:52pm 8.5 1.9 4.3 75 1.8 W 28 61 15 33 1013.7 1013.7 2.8
20/06:30pm 8.3 1.8 4.5 77 1.7 WSW 28 41 15 22 1013.7 1013.7 2.8
20/06:08pm 7.9 2.0 4.1 77 1.7 W 24 48 13 26 1013.5 1013.5 2.6
20/06:00pm 7.3 2.2 3.9 79 1.5 W 20 28 11 15 1013.3 1013.3 2.6
20/05:30pm 7.3 0.3 4.1 80 1.4 W 30 39 16 21 1012.9 1012.9 2.6
20/05:00pm 7.0 -0.6 4.1 82 1.3 SW 33 46 18 25 1012.5 1012.5 2.6
20/04:43pm 6.5 -4.4 3.8 83 1.2 SSW 50 76 27 41 1012.1 1012.1 2.6
20/04:34pm 6.9 -2.6 3.9 81 1.3 SW 43 76 23 41 1011.5 1011.5 2.6
20/04:31pm 7.0 -1.0 3.8 80 1.4 SW 35 70 19 38 1011.5 1011.5 2.4
20/04:30pm 7.4 0.0 4.2 80 1.4 WSW 32 70 17 38 1011.6 1011.6 2.4
20/04:29pm 8.0 1.5 4.8 80 1.4 WSW 28 61 15 33 1011.7 1011.7 2.4
20/04:00pm 6.9 0.7 4.2 83 1.2 W 26 39 14 21 1011.4 1011.4 2.4
20/03:30pm 6.4 0.2 4.1 85 1.0 WSW 26 39 14 21 1011.2 1011.2 2.4
20/03:04pm 7.0 -4.6 4.0 81 1.3 SW 54 72 29 39 1010.4 1010.4 1.2
20/03:00pm 7.3 -2.8 3.9 79 1.5 WSW 46 67 25 36 1010.2 1010.2 1.2
20/02:55pm 8.0 0.0 4.0 76 1.7 WSW 35 65 19 35 1010.2 1010.2 1.2
20/02:52pm 8.9 1.9 3.9 71 2.2 W 30 52 16 28 1010.3 1010.3 1.2
20/02:30pm 8.4 1.3 3.8 73 2.0 W 30 39 16 21 1010.3 1010.3 1.2
20/02:06pm 8.8 1.6 5.0 77 1.7 W 32 50 17 27 1010.2 1010.2 1.2
20/02:00pm 8.4 0.1 4.4 76 1.8 WSW 37 54 20 29 1010.1 1010.1 1.2
20/01:32pm 8.8 0.8 4.0 72 2.1 WSW 35 54 19 29 1009.9 1009.9 1.2
20/01:30pm 8.8 0.5 4.0 72 2.1 WSW 37 54 20 29 1009.9 1009.9 1.2
20/01:00pm 8.8 -1.8 5.0 77 1.7 WSW 50 69 27 37 1010.0 1010.0 1.2
20/12:41pm 9.8 1.5 4.0 67 2.6 WSW 37 56 20 30 1009.7 1009.7 1.2
20/12:30pm 9.2 0.8 3.8 69 2.4 WSW 37 52 20 28 1009.8 1009.8 1.2
20/12:00pm 9.1 -0.3 4.7 74 2.0 WSW 43 74 23 40 1010.0 1010.0 1.2
20/11:56am 9.5 0.9 4.9 73 2.1 WSW 39 63 21 34 1009.8 1009.8 1.2
20/11:49am 9.4 0.4 4.8 73 2.1 WSW 41 61 22 33 1009.9 1009.9 1.2
20/11:30am 10.2 2.3 4.4 67 2.6 W 35 54 19 29 1009.8 1009.8 1.0
20/11:00am 9.4 0.3 4.2 70 2.3 WSW 41 69 22 37 1009.8 1009.8 1.0
20/10:33am 9.8 2.0 5.0 72 2.2 W 35 54 19 29 1010.0 1010.0 1.0
20/10:30am 9.3 1.4 4.5 72 2.1 W 35 46 19 25 1009.9 1009.9 1.0
20/10:00am 10.8 1.3 4.7 66 2.8 W 44 63 24 34 1009.6 1009.6 0.2
20/09:30am 9.3 0.3 4.5 72 2.1 WSW 41 63 22 34 1009.4 1009.4 0.2
20/09:00am 9.5 0.9 6.4 81 1.4 WSW 41 59 22 32 1009.1 1009.1 18.6
20/08:36am 10.3 2.2 5.3 71 2.3 W 37 57 20 31 1008.9 1008.9 17.8
20/08:30am 10.2 1.8 5.4 72 2.2 W 39 50 21 27 1008.9 1008.9 17.8
20/08:00am 8.9 0.0 4.9 76 1.8 WSW 41 67 22 36 1008.7 1008.7 17.8
20/07:43am 9.2 -1.5 4.8 74 2.0 WSW 50 87 27 47 1008.3 1008.3 17.8
20/07:30am 9.4 0.2 5.6 77 1.7 WSW 43 65 23 35 1008.3 1008.3 17.8
20/07:20am 8.9 1.4 6.2 83 1.2 W 35 61 19 33 1008.4 1008.4 17.6
20/07:10am 7.9 -2.5 4.3 78 1.6 WSW 48 82 26 44 1008.5 1008.5 17.6
20/07:07am 9.1 -0.7 5.3 77 1.7 WSW 46 82 25 44 1008.2 1008.2 17.2
20/07:00am 10.1 1.8 5.9 75 1.9 WSW 39 61 21 33 1007.8 1007.8 17.2
20/06:30am 9.4 -1.0 6.1 80 1.5 W 50 72 27 39 1007.6 1007.6 17.0
20/06:02am 8.9 0.7 6.5 85 1.1 W 39 59 21 32 1007.3 1007.3 17.0
20/06:00am 9.0 1.2 6.8 86 1.0 W 37 54 20 29 1007.4 1007.4 17.0
20/05:30am 10.4 1.1 6.0 74 2.0 W 44 67 24 36 1006.8 1006.9 16.2
20/05:00am 10.8 1.2 6.2 73 2.2 W 46 72 25 39 1006.6 1006.7 16.2
20/04:30am 10.6 0.0 4.9 68 2.6 W 50 72 27 39 1006.5 1006.6 16.2
20/04:00am 10.9 1.6 6.1 72 2.3 WNW 44 69 24 37 1006.3 1006.4 16.2
20/03:30am 10.3 1.9 7.2 81 1.5 W 41 65 22 35 1006.3 1006.4 16.0
20/03:02am 9.9 1.5 7.5 85 1.1 WNW 41 59 22 32 1006.7 1006.8 16.0
20/03:00am 9.6 1.2 7.2 85 1.1 WNW 41 56 22 30 1006.8 1006.9 16.0
20/02:40am 9.0 0.6 7.5 90 0.7 WNW 41 65 22 35 1007.2 1007.2 16.0
20/02:30am 9.6 2.9 8.2 91 0.7 WNW 33 52 18 28 1007.0 1007.1 15.6
20/02:02am 9.6 3.1 8.0 90 0.8 WNW 32 50 17 27 1007.4 1007.4 15.2
20/02:00am 9.6 2.9 8.0 90 0.8 WNW 33 50 18 27 1007.4 1007.4 15.2
20/01:32am 9.3 2.0 7.4 88 0.9 NW 35 54 19 29 1007.8 1007.8 14.4
20/01:30am 9.4 2.2 7.5 88 0.9 NW 35 50 19 27 1007.9 1007.9 14.2
20/01:00am 10.1 3.7 6.8 80 1.6 NW 30 48 16 26 1007.9 1007.9 13.0
20/12:41am 10.0 4.1 7.3 83 1.3 NW 28 46 15 25 1008.1 1008.1 13.0
20/12:30am 10.0 3.7 7.3 83 1.3 NW 30 46 16 25 1008.3 1008.3 13.0
20/12:00am 10.8 4.2 7.7 81 1.5 WNW 32 50 17 27 1008.4 1008.4 12.8
 
Date/Time
EST
Temp
°C
App
Temp
°C
Dew
Point
°C
Rel
Hum
%
Delta-T
°C
Wind Press
QNH
hPa
Press
MSL
hPa
Rain since
9am
mm
Dir  Spd
km/h
Gust
km/h
Spd
kts
Gust
kts
19/11:30pm 10.9 4.3 7.8 81 1.5 WNW 32 50 17 27 1008.6 1008.6 12.8
19/11:00pm 11.2 4.0 7.5 78 1.8 WNW 35 54 19 29 1008.8 1008.8 12.8
19/10:30pm 11.9 2.4 6.8 71 2.4 WNW 46 65 25 35 1008.5 1008.5 12.8
19/10:00pm 12.3 3.9 5.7 64 3.1 WNW 39 65 21 35 1008.6 1008.6 12.8
19/09:30pm 12.2 2.9 6.0 66 2.9 WNW 44 67 24 36 1008.8 1008.8 12.8
19/09:00pm 12.4 2.5 6.7 68 2.7 WNW 48 70 26 38 1009.0 1009.0 12.8
19/08:33pm 12.3 4.4 9.3 82 1.5 WNW 41 59 22 32 1009.1 1009.1 12.8
19/08:30pm 12.3 4.4 9.3 82 1.5 WNW 41 57 22 31 1009.1 1009.1 12.8
19/08:00pm 12.1 4.5 8.9 81 1.6 WNW 39 59 21 32 1009.1 1009.1 12.8
19/07:30pm 11.7 4.2 9.3 85 1.2 WNW 39 59 21 32 1009.2 1009.2 12.8
19/07:09pm 11.6 4.6 9.9 89 0.9 WNW 37 56 20 30 1009.0 1009.0 12.8
19/07:00pm 11.6 3.9 10.2 91 0.7 W 41 56 22 30 1009.0 1009.0 12.8
19/06:30pm 12.0 4.5 10.9 93 0.6 W 41 61 22 33 1008.9 1008.9 12.8
19/06:16pm 12.4 5.7 11.1 92 0.7 WNW 37 56 20 30 1008.8 1008.8 12.8
19/06:00pm 12.6 5.5 11.0 90 0.8 W 39 56 21 30 1008.6 1008.6 12.0
19/05:33pm 12.7 7.1 11.4 92 0.7 NW 32 52 17 28 1008.4 1008.4 11.6
19/05:30pm 12.7 7.1 11.4 92 0.7 WNW 32 48 17 26 1008.5 1008.5 11.6
19/05:07pm 12.5 6.2 11.2 92 0.7 W 35 54 19 29 1008.6 1008.6 11.0
19/05:00pm 12.3 6.0 10.9 91 0.7 W 35 54 19 29 1008.3 1008.3 10.8
19/04:57pm 12.5 7.1 10.9 90 0.8 WNW 30 54 16 29 1008.3 1008.3 10.4
19/04:30pm 12.9 7.0 11.0 88 1.0 NW 33 57 18 31 1008.4 1008.4 4.2
19/04:05pm 13.1 7.5 11.5 90 0.9 NW 32 50 17 27 1008.2 1008.2 3.2
19/04:00pm 13.0 7.7 11.4 90 0.9 NW 30 46 16 25 1008.2 1008.2 3.2
19/03:45pm 12.7 7.0 11.1 90 0.8 NW 32 50 17 27 1008.6 1008.6 3.2
19/03:30pm 12.8 7.4 10.9 88 1.0 NW 30 43 16 23 1008.8 1008.8 2.6
19/03:00pm 13.2 7.7 10.4 83 1.5 NW 30 48 16 26 1008.7 1008.7 0.4
19/02:30pm 13.7 8.1 10.3 80 1.8 NW 30 56 16 30 1009.0 1009.0 0.0
19/02:00pm 14.9 8.7 9.3 69 2.9 NW 32 50 17 27 1009.0 1009.0 0.0
19/01:30pm 14.8 7.9 9.0 68 3.0 NW 35 59 19 32 1009.2 1009.2 0.0
19/01:00pm 14.5 7.6 8.7 68 2.9 NW 35 63 19 34 1009.5 1009.5 0.0
19/12:30pm 14.0 6.2 8.4 69 2.8 NW 39 59 21 32 1010.0 1010.0 0.0
19/12:00pm 14.3 7.2 8.0 66 3.2 NW 35 56 19 30 1010.2 1010.2 0.0
19/11:30am 14.1 7.4 8.1 67 3.0 NW 33 56 18 30 1010.5 1010.5 0.0
19/11:00am 13.6 6.4 7.6 67 3.0 NW 35 54 19 29 1010.9 1010.9 0.0
19/10:31am 13.4 6.2 7.6 68 2.9 NW 35 59 19 32 1011.2 1011.2 0.0
19/10:30am 13.4 6.2 7.6 68 2.9 NW 35 50 19 27 1011.1 1011.1 0.0
19/10:00am 13.2 6.3 7.2 67 2.9 NW 33 52 18 28 1011.3 1011.3 0.0
19/09:30am 13.0 4.9 7.2 68 2.8 NW 39 67 21 36 1011.3 1011.3 0.0
19/09:00am 12.9 4.4 6.9 67 2.9 NW 41 63 22 34 1011.2 1011.2 3.0
19/08:30am 12.5 4.7 6.5 67 2.9 NW 37 69 20 37 1011.5 1011.5 3.0
19/08:00am 12.3 4.8 6.4 67 2.8 NNW 35 61 19 33 1011.5 1011.5 3.0
19/07:30am 11.9 4.0 6.4 69 2.6 NW 37 59 20 32 1011.8 1011.8 3.0
19/07:00am 11.6 4.5 6.3 70 2.5 NW 33 56 18 30 1012.0 1012.0 3.0
19/06:30am 11.6 3.8 6.5 71 2.4 NW 37 61 20 33 1011.9 1011.9 3.0
19/06:00am 11.2 3.7 6.3 72 2.3 NW 35 57 19 31 1012.1 1012.1 3.0
19/05:30am 11.0 3.9 6.2 72 2.3 NW 33 52 18 28 1011.9 1011.9 3.0

Other formats

Comma delimited format used in spreadsheet applications
http://www.bom.gov.au/fwo/IDV60801/IDV60801.94842.axf

JavaScript Object Notation format (JSON) in row-major order
http://www.bom.gov.au/fwo/IDV60801/IDV60801.94842.json

Data quality

Most of these data are generated automatically and are frequently updated. Quality checks on data are not normally performed. It is possible for incorrect values to appear. Refer to information at About Latest Weather Observations and please check the disclaimer before using these data.